地図

経路データ

SID SEASON NUMBER BASIN SUBBASIN NAME ISO_TIME NATURE LAT LON WMO_WIND WMO_PRES WMO_AGENCY TRACK_TYPE DIST2LAND LANDFALL IFLAG USA_AGENCY USA_ATCF_ID USA_LAT USA_LON USA_RECORD USA_STATUS USA_WIND USA_PRES USA_SSHS USA_R34_NE USA_R34_SE USA_R34_SW USA_R34_NW USA_R50_NE USA_R50_SE USA_R50_SW USA_R50_NW USA_R64_NE USA_R64_SE USA_R64_SW USA_R64_NW USA_POCI USA_ROCI USA_RMW USA_EYE TOKYO_LAT TOKYO_LON TOKYO_GRADE TOKYO_WIND TOKYO_PRES TOKYO_R50_DIR TOKYO_R50_LONG TOKYO_R50_SHORT TOKYO_R30_DIR TOKYO_R30_LONG TOKYO_R30_SHORT TOKYO_LAND CMA_LAT CMA_LON CMA_CAT CMA_WIND CMA_PRES HKO_LAT HKO_LON HKO_CAT HKO_WIND HKO_PRES NEWDELHI_LAT NEWDELHI_LON NEWDELHI_GRADE NEWDELHI_WIND NEWDELHI_PRES NEWDELHI_CI NEWDELHI_DP NEWDELHI_POCI REUNION_LAT REUNION_LON REUNION_TYPE REUNION_WIND REUNION_PRES REUNION_TNUM REUNION_CI REUNION_RMW REUNION_R34_NE REUNION_R34_SE REUNION_R34_SW REUNION_R34_NW REUNION_R50_NE REUNION_R50_SE REUNION_R50_SW REUNION_R50_NW REUNION_R64_NE REUNION_R64_SE REUNION_R64_SW REUNION_R64_NW BOM_LAT BOM_LON BOM_TYPE BOM_WIND BOM_PRES BOM_TNUM BOM_CI BOM_RMW BOM_R34_NE BOM_R34_SE BOM_R34_SW BOM_R34_NW BOM_R50_NE BOM_R50_SE BOM_R50_SW BOM_R50_NW BOM_R64_NE BOM_R64_SE BOM_R64_SW BOM_R64_NW BOM_ROCI BOM_POCI BOM_EYE BOM_POS_METHOD BOM_PRES_METHOD NADI_LAT NADI_LON NADI_CAT NADI_WIND NADI_PRES WELLINGTON_LAT WELLINGTON_LON WELLINGTON_WIND WELLINGTON_PRES DS824_LAT DS824_LON DS824_STAGE DS824_WIND DS824_PRES TD9636_LAT TD9636_LON TD9636_STAGE TD9636_WIND TD9636_PRES TD9635_LAT TD9635_LON TD9635_WIND TD9635_PRES TD9635_ROCI NEUMANN_LAT NEUMANN_LON NEUMANN_CLASS NEUMANN_WIND NEUMANN_PRES MLC_LAT MLC_LON MLC_CLASS MLC_WIND MLC_PRES USA_GUST BOM_GUST BOM_GUST_PER REUNION_GUST REUNION_GUST_PER USA_SEAHGT USA_SEARAD_NE USA_SEARAD_SE USA_SEARAD_SW USA_SEARAD_NW STORM_SPEED STORM_DIR
2018234N22119 2018 67 WP MM NOT_NAMED 2018-08-22 00:00:00 TS 22.1500 118.650 main 167 157 O_O___________ jtwc_wp WP242018 22.1000 118.700 DB 20 1001 -3 1002 150 50 22.2000 118.600 1 25 996 3 89
2018234N22119 2018 67 WP MM NOT_NAMED 2018-08-22 03:00:00 TS 22.1525 118.786 main 157 147 P_O___________ WP242018 22.1050 118.772 DB 20 1001 -3 1002 150 50 22.2000 118.800 1 25 996 3 90
2018234N22119 2018 67 WP MM NOT_NAMED 2018-08-22 06:00:00 TS 22.1500 118.950 main 137 131 O_O___________ jtwc_wp WP242018 22.1000 118.900 DB 20 1001 -3 1002 150 50 22.2000 119.000 1 25 996 3 92
2018234N22119 2018 67 WP MM NOT_NAMED 2018-08-22 09:00:00 TS 22.1425 119.160 main 121 102 P_O___________ WP242018 22.0850 119.120 DB 20 1000 -3 1002 117 50 22.2000 119.200 1 25 996 4 90
2018234N22119 2018 67 WP MM NOT_NAMED 2018-08-22 12:00:00 TS 22.1500 119.400 main 98 70 O_O___________ jtwc_wp WP242018 22.1000 119.400 DB 20 1000 -3 1002 85 50 22.2000 119.400 1 25 996 5 86
2018234N22119 2018 67 WP MM NOT_NAMED 2018-08-22 15:00:00 TS 22.1813 119.700 main 70 38 P_O___________ WP242018 22.1625 119.700 DB 22 1000 -3 1002 92 40 22.2000 119.700 1 25 996 6 75
2018234N22119 2018 67 WP MM NOT_NAMED 2018-08-22 18:00:00 TS 22.3000 120.000 main 38 15 O_O___________ jtwc_wp WP242018 22.3000 120.000 TD 25 1000 -1 1002 100 30 22.3000 120.000 1 25 996 6 61
2018234N22119 2018 67 WP MM NOT_NAMED 2018-08-22 21:00:00 TS 22.4600 120.247 main 10 0 P_O___________ WP242018 22.5200 120.295 TD 27 998 -1 1000 100 30 22.4000 120.200 1 29 992 7 40
2018234N22119 2018 67 WP MM NOT_NAMED 2018-08-23 00:00:00 TS 22.8000 120.450 main 0 0 O_O___________ jtwc_wp WP242018 22.8000 120.500 TD 30 997 -1 999 100 30 22.8000 120.400 1 29 994 7 13
2018234N22119 2018 67 WP MM NOT_NAMED 2018-08-23 03:00:00 TS 23.1500 120.423 main 0 0 P_O___________ WP242018 23.0999 120.545 TD 30 997 -1 999 120 30 23.2000 120.300 1 29 994 6 356
2018234N22119 2018 67 WP MM NOT_NAMED 2018-08-23 06:00:00 TS 23.4000 120.400 main 0 0 O_OO__________ jtwc_wp WP242018 23.4000 120.500 TD 30 997 -1 999 140 30 23.4000 120.300 1 29 994 23.4000 120.400 TD 30 994 5 354
2018234N22119 2018 67 WP MM NOT_NAMED 2018-08-23 09:00:00 TS 23.6290 120.389 main 0 0 P_OO__________ WP242018 23.6725 120.472 TD 27 997 -1 999 140 30 23.6000 120.300 1 29 994 23.6000 120.400 TD 30 994 4 357
2018234N22119 2018 67 WP MM NOT_NAMED 2018-08-23 12:00:00 TS 23.8364 120.391 main 0 0 O_OO__________ jtwc_wp WP242018 23.9000 120.400 TD 25 997 -1 1000 140 30 23.8000 120.300 1 29 994 23.8000 120.500 TD 30 994 3 348
2018234N22119 2018 67 WP MM NOT_NAMED 2018-08-23 15:00:00 TS 23.9575 120.314 main 0 0 P_OO__________ WP242018 24.0726 120.243 TD 25 997 -1 1000 140 30 23.9000 120.300 1 29 994 23.9000 120.400 TD 30 994 3 344
2018234N22119 2018 67 WP MM NOT_NAMED 2018-08-23 18:00:00 TS 24.1000 120.300 main 10 10 O_OO__________ jtwc_wp WP242018 24.2000 120.100 TD 25 998 -1 1000 140 30 24.0000 120.300 1 29 994 24.1000 120.500 TD 30 994 2 0
2018234N22119 2018 67 WP MM NOT_NAMED 2018-08-23 21:00:00 TS 24.2025 120.290 main 15 15 P_OO__________ WP242018 24.3075 120.070 TD 25 998 -1 1000 145 30 24.1000 120.300 1 29 994 24.2000 120.500 TD 30 994 2 345
2018234N22119 2018 67 WP MM NOT_NAMED 2018-08-24 00:00:00 TS 24.2667 120.267 main 23 23 O_OO__________ jtwc_wp WP242018 24.4000 120.100 TD 25 998 -1 1001 150 30 24.2000 120.300 1 29 994 24.2000 120.400 TD 30 994 2 20
2018234N22119 2018 67 WP MM NOT_NAMED 2018-08-24 03:00:00 TS 24.3692 120.352 main 20 15 P_OO__________ WP242018 24.5075 120.157 TD 25 998 -1 1000 165 30 24.3000 120.400 1 29 994 24.3000 120.500 TD 30 994 3 38
2018234N22119 2018 67 WP MM NOT_NAMED 2018-08-24 06:00:00 TS 24.5000 120.467 main 15 15 O_OO__________ jtwc_wp WP242018 24.6000 120.200 TD 25 998 -1 1000 180 30 24.5000 120.500 1 29 994 24.4000 120.700 TD 30 994 4 6
2018234N22119 2018 67 WP MM NOT_NAMED 2018-08-24 09:00:00 TS 24.7167 120.391 main 32 32 P_OO__________ WP242018 24.6500 120.172 TD 25 998 -1 1000 180 30 24.8000 120.500 1 29 994 24.7000 120.500 TD 30 994 4 325
2018234N22119 2018 67 WP MM NOT_NAMED 2018-08-24 12:00:00 TS 24.8000 120.233 main 55 55 O_OO__________ jtwc_wp WP242018 24.7000 120.100 TD 25 998 -1 1000 180 30 24.9000 120.300 1 29 994 24.8000 120.300 TD 25 996 3 301
2018234N22119 2018 67 WP MM NOT_NAMED 2018-08-24 15:00:00 TS 24.8666 120.112 main 67 45 P_OO__________ WP242018 24.7999 120.037 TD 25 998 -1 1000 180 35 25.0000 120.100 1 29 994 24.8000 120.200 TD 25 996 3 301
2018234N22119 2018 67 WP MM NOT_NAMED 2018-08-24 18:00:00 TS 24.9636 119.927 main 45 34 O_OO__________ jtwc_wp WP242018 24.9000 119.900 TD 25 998 -1 1000 180 40 25.0000 119.900 1 29 994 25.0000 120.000 TD 25 996 4 294
2018234N22119 2018 67 WP MM NOT_NAMED 2018-08-24 21:00:00 TS 25.0258 119.713 main 34 15 P_OO__________ WP242018 24.9646 119.683 TD 25 998 -1 1000 140 40 25.0000 119.700 1 29 994 25.2000 119.800 TD 25 996 5 285
2018234N22119 2018 67 WP MM NOT_NAMED 2018-08-25 00:00:00 TS 25.0875 119.413 main 15 0 O_OO__________ jtwc_wp WP242018 25.0000 119.300 TD 25 998 -1 1000 100 40 25.1000 119.500 1 29 994 25.4000 119.600 TD 25 996 8 276
2018234N22119 2018 67 WP MM NOT_NAMED 2018-08-25 03:00:00 TS 25.1052 118.830 main 0 0 P_O___________ WP242018 25.0079 118.695 TD 22 998 -1 1000 162 35 25.3000 119.100 1 25 996 11 268
2018234N22119 2018 67 WP MM NOT_NAMED 2018-08-25 06:00:00 TS 25.0500 118.150 main 0 0 O_O___________ jtwc_wp WP242018 25.0000 118.000 DB 20 999 -3 1000 225 30 25.2000 118.600 1 25 996 13 265
2018234N22119 2018 67 WP MM NOT_NAMED 2018-08-25 09:00:00 NR 24.9976 117.373 main 0 0 P_____________ WP242018 24.9976 117.373 DB 17 999 -3 1000 225 30 12 268
2018234N22119 2018 67 WP MM NOT_NAMED 2018-08-25 12:00:00 NR 25.0000 116.800 main 0 O_____________ jtwc_wp WP242018 25.0000 116.800 DB 15 1000 -3 1001 225 30 10 270

デジタル台風データ・検索

IBTrACS Databaseについて

本データベースは、米国NOAAが公開する1842年以降の世界の熱帯低気圧のベストトラックデータアーカイブInternational Best Track Archive for Climate Stewardship (IBTrACS)を、ウェブで閲覧しやすい形式に変換したものです。

最終更新日:2021-10-21